Time;durP1;ratioP1;P1;durP2;ratioP2;P2;SDS_P1;SDS_P2;PMS_P1;PMS_P2;Temp;Humidity;BMP_temperature;BMP_pressure;BME280_temperature;BME280_humidity;BME280_pressure;Samples;Min_cycle;Max_cycle;Signal;HPM_P1;HPM_P2
2021/10/09 00:00:09;;;;;;;28.80;22.20;;;15.60;88.10;;;15.09;100.00;100839.25;5033075;28;20223;-65
2021/10/09 00:02:37;;;;;;;32.25;29.05;;;15.60;89.20;;;15.14;100.00;100837.19;5033721;28;20578;-64
2021/10/09 00:05:07;;;;;;;38.53;32.80;;;15.70;89.20;;;15.26;100.00;100828.38;5033578;28;20223;-63
2021/10/09 00:07:35;;;;;;;116.75;109.45;;;15.80;89.80;;;15.32;100.00;100833.34;5033421;28;20321;-63
2021/10/09 00:10:06;;;;;;;126.05;117.85;;;15.90;89.60;;;15.43;100.00;100833.03;5032807;28;20243;-62
2021/10/09 00:12:34;;;;;;;162.15;150.73;;;16.00;89.70;;;15.52;100.00;100826.47;5033383;28;20218;-63
2021/10/09 00:15:04;;;;;;;201.75;187.13;;;16.10;89.50;;;15.57;100.00;100820.03;5033295;28;20215;-63
2021/10/09 00:17:34;;;;;;;146.40;133.20;;;16.20;89.20;;;15.57;100.00;100820.03;5033225;28;20290;-64
2021/10/09 00:20:03;;;;;;;188.10;175.95;;;16.10;88.60;;;15.50;100.00;100817.03;5032570;28;20223;-64
2021/10/09 00:22:31;;;;;;;213.73;199.45;;;16.10;87.90;;;15.43;100.00;100814.75;5033019;28;20219;-64
2021/10/09 00:24:59;;;;;;;250.68;231.05;;;16.00;87.60;;;15.33;100.00;100821.31;5033027;28;20739;-64
2021/10/09 00:27:27;;;;;;;263.33;233.82;;;15.90;87.80;;;15.32;100.00;100817.00;5033133;28;20215;-64
2021/10/09 00:29:55;;;;;;;262.40;229.40;;;15.80;88.10;;;15.30;100.00;100813.78;5032409;28;20292;-63
2021/10/09 00:32:23;;;;;;;347.92;233.68;;;15.80;88.30;;;15.30;100.00;100819.25;5032271;28;20681;-63
2021/10/09 00:34:53;;;;;;;342.33;202.18;;;15.90;88.10;;;15.21;100.00;100809.47;5033137;28;20214;-63
2021/10/09 00:37:21;;;;;;;348.25;204.23;;;15.80;87.90;;;15.16;100.00;100812.38;5032738;28;20214;-63
2021/10/09 00:39:50;;;;;;;270.67;255.07;;;15.70;88.40;;;15.15;100.00;100818.91;5030770;28;20777;-65
2021/10/09 00:42:18;;;;;;;196.32;184.70;;;15.80;88.70;;;15.32;100.00;100808.81;5032879;28;20215;-64
2021/10/09 00:44:46;;;;;;;281.75;253.35;;;15.90;88.50;;;15.40;100.00;100814.59;5032819;28;20210;-65
2021/10/09 00:47:15;;;;;;;287.13;245.48;;;16.00;88.40;;;15.47;100.00;100812.19;5032692;28;20313;-64
2021/10/09 00:49:44;;;;;;;296.83;235.38;;;16.00;88.70;;;15.49;100.00;100807.25;5031974;28;20246;-63
2021/10/09 00:52:14;;;;;;;479.42;434.58;;;16.00;88.40;;;15.44;100.00;100807.38;5031171;28;20425;-65
2021/10/09 00:54:47;;;;;;;562.03;516.35;;;16.00;88.30;;;15.48;100.00;100811.09;5031182;28;20422;-62
2021/10/09 00:57:18;;;;;;;558.85;512.92;;;16.10;88.00;;;15.43;100.00;100808.50;5030712;28;20430;-63
2021/10/09 00:59:49;;;;;;;536.47;491.42;;;16.10;86.90;;;15.35;100.00;100804.66;5030759;28;20450;-63
2021/10/09 01:02:19;;;;;;;448.98;407.38;;;16.00;86.60;;;15.36;100.00;100814.44;5031035;28;20417;-62
2021/10/09 01:04:48;;;;;;;495.60;451.98;;;16.00;86.80;;;15.39;100.00;100810.25;5030937;28;20422;-64
2021/10/09 01:07:18;;;;;;;435.23;393.23;;;16.00;87.00;;;15.39;100.00;100810.25;5030917;28;20461;-64
2021/10/09 01:09:47;;;;;;;391.92;352.27;;;16.00;87.00;;;15.37;100.00;100816.03;5030218;28;20427;-62
2021/10/09 01:12:15;;;;;;;444.15;402.23;;;16.10;87.00;;;15.32;100.00;100808.00;5031038;28;20820;-65
2021/10/09 01:14:44;;;;;;;461.40;419.02;;;16.00;86.90;;;15.27;100.00;100809.00;5030991;28;20419;-64
2021/10/09 01:17:14;;;;;;;483.58;440.67;;;16.00;86.70;;;15.18;100.00;100810.91;5030711;28;20506;-62
2021/10/09 01:19:43;;;;;;;488.75;445.73;;;15.80;86.80;;;15.12;100.00;100806.75;5030208;28;20415;-64
2021/10/09 01:22:13;;;;;;;466.33;423.40;;;15.80;86.30;;;15.07;100.00;100809.63;5030782;28;20407;-64
2021/10/09 01:24:42;;;;;;;454.40;411.77;;;15.70;86.30;;;15.11;100.00;100815.22;5030798;28;20423;-64
2021/10/09 01:27:16;;;;;;;455.45;412.90;;;15.80;86.90;;;15.17;100.00;100816.66;5030837;28;20422;-64
2021/10/09 01:29:44;;;;;;;403.23;362.35;;;15.90;87.30;;;15.20;100.00;100816.84;5030046;28;20912;-62
2021/10/09 01:32:13;;;;;;;438.20;396.20;;;15.90;86.90;;;15.21;100.00;100815.72;5030747;28;20446;-63
2021/10/09 01:34:41;;;;;;;433.77;392.23;;;15.90;87.00;;;15.24;100.00;100825.16;5030641;28;20430;-64
2021/10/09 01:37:09;;;;;;;431.88;390.55;;;15.90;86.90;;;15.21;100.00;100821.16;5030654;28;20411;-63
2021/10/09 01:39:44;;;;;;;405.63;365.00;;;15.90;86.60;;;15.20;100.00;100821.47;5030111;28;20407;-63
2021/10/09 01:42:13;;;;;;;434.92;393.17;;;15.90;86.50;;;15.17;100.00;100811.22;5030474;28;20758;-64
2021/10/09 01:44:41;;;;;;;422.02;380.80;;;15.80;86.50;;;15.03;100.00;100814.13;5030606;28;20417;-63
2021/10/09 01:47:10;;;;;;;455.75;413.10;;;15.70;85.90;;;15.03;100.00;100816.84;5030300;28;20426;-64
2021/10/09 01:49:38;;;;;;;473.80;430.93;;;15.70;86.80;;;15.05;100.00;100808.34;5029510;28;20829;-63
2021/10/09 01:52:06;;;;;;;463.07;420.50;;;15.70;87.00;;;15.11;100.00;100810.59;5030557;28;20418;-64
2021/10/09 01:54:35;;;;;;;431.60;389.58;;;15.80;86.70;;;15.17;100.00;100801.13;5030305;28;20425;-62
2021/10/09 01:57:05;;;;;;;424.15;382.83;;;15.80;87.10;;;15.19;100.00;100800.81;5030402;28;20912;-64
2021/10/09 01:59:33;;;;;;;422.65;381.33;;;15.90;86.50;;;15.16;100.00;100796.03;5029859;28;20885;-63
2021/10/09 02:02:01;;;;;;;470.35;427.45;;;15.80;86.30;;;15.13;100.00;100794.75;5030190;28;20426;-64
2021/10/09 02:04:29;;;;;;;449.90;407.63;;;15.80;86.40;;;15.14;100.00;100798.25;5030628;28;20419;-63
2021/10/09 02:06:57;;;;;;;495.27;451.92;;;15.80;86.30;;;15.13;100.00;100789.28;5030153;28;20415;-63
2021/10/09 02:09:26;;;;;;;519.15;474.83;;;15.80;86.30;;;15.14;100.00;100790.88;5030990;28;20889;-64
2021/10/09 02:11:54;;;;;;;490.10;446.63;;;15.80;86.40;;;15.16;100.00;100783.22;5034337;28;20418;-64
2021/10/09 02:14:27;;;;;;;468.33;425.30;;;15.80;86.20;;;15.18;100.00;100789.13;5034133;28;20884;-64
2021/10/09 02:17:14;;;;;;;488.73;445.15;;;15.90;86.70;;;15.18;100.00;100788.31;5034374;28;20433;-64
2021/10/09 02:25:27;;;;;;;479.05;435.85;;;15.80;86.10;;;15.03;100.00;100786.88;5034261;28;20476;-63
2021/10/09 02:27:56;;;;;;;479.10;436.00;;;15.70;85.80;;;15.03;100.00;100788.78;5033493;28;20422;-62
2021/10/09 02:30:27;;;;;;;470.00;426.65;;;15.70;86.20;;;15.06;100.00;100794.41;5033891;28;20434;-62
2021/10/09 02:32:55;;;;;;;491.95;448.20;;;15.80;86.60;;;15.11;100.00;100794.25;5033928;28;20473;-63
2021/10/09 02:35:24;;;;;;;459.17;416.38;;;15.80;86.80;;;15.11;100.00;100796.16;5033780;28;20429;-63
2021/10/09 02:37:52;;;;;;;456.40;413.95;;;15.80;86.70;;;15.05;100.00;100792.78;5033625;28;20887;-62
2021/10/09 02:40:20;;;;;;;440.40;398.97;;;15.80;86.20;;;15.01;100.00;100782.88;5033687;28;20411;-64
2021/10/09 02:42:48;;;;;;;455.80;412.90;;;15.70;85.60;;;14.96;100.00;100788.47;5033786;28;20472;-62
2021/10/09 02:45:17;;;;;;;472.30;429.23;;;15.60;85.60;;;14.99;100.00;100788.63;5033680;28;20423;-63
2021/10/09 02:47:46;;;;;;;462.02;419.00;;;15.70;86.50;;;14.98;100.00;100789.78;5032872;28;20526;-63
2021/10/09 02:50:15;;;;;;;441.40;399.02;;;15.70;86.30;;;14.95;100.00;100786.88;5032873;28;20504;-63
2021/10/09 02:52:44;;;;;;;432.90;391.15;;;15.60;85.90;;;14.90;100.00;100785.09;5033324;28;20418;-62
2021/10/09 02:55:17;;;;;;;461.92;418.92;;;15.60;85.80;;;14.90;100.00;100787.81;5033384;28;20928;-66
2021/10/09 02:57:45;;;;;;;461.33;418.20;;;15.60;86.80;;;14.86;100.00;100786.88;5033607;28;20422;-64
2021/10/09 03:00:15;;;;;;;424.98;382.90;;;15.60;86.90;;;14.85;100.00;100789.91;5032774;28;20411;-65
2021/10/09 03:02:45;;;;;;;451.30;408.20;;;15.60;87.60;;;14.93;100.00;100792.63;5033474;28;20816;-65
2021/10/09 03:05:14;;;;;;;457.65;413.77;;;15.60;88.40;;;15.03;100.00;100786.88;5033182;28;20414;-65
2021/10/09 03:07:42;;;;;;;462.38;419.38;;;15.80;88.50;;;15.08;100.00;100786.72;5033298;28;20480;-62
2021/10/09 03:10:12;;;;;;;451.52;408.65;;;15.80;88.10;;;15.13;100.00;100789.28;5032577;28;20423;-63
2021/10/09 03:12:41;;;;;;;474.20;430.85;;;15.90;87.80;;;15.13;100.00;100781.13;5033243;28;20832;-63
2021/10/09 03:15:11;;;;;;;465.88;422.35;;;15.80;87.40;;;15.08;100.00;100777.72;5033152;28;20415;-63
2021/10/09 03:17:40;;;;;;;471.58;427.85;;;15.70;87.00;;;15.02;100.00;100782.53;5033142;28;20422;-62
2021/10/09 03:20:12;;;;;;;455.75;412.17;;;15.70;86.90;;;15.03;100.00;100786.88;5031781;28;20426;-63
2021/10/09 03:22:41;;;;;;;448.85;405.42;;;15.70;87.30;;;15.05;100.00;100789.28;5033131;28;20414;-66
2021/10/09 03:25:10;;;;;;;434.70;392.17;;;15.80;87.60;;;15.04;100.00;100791.22;5032950;28;20422;-64
2021/10/09 03:27:39;;;;;;;429.98;387.40;;;15.70;87.60;;;15.09;100.00;100796.50;5032809;28;20423;-64
2021/10/09 03:30:09;;;;;;;447.73;404.40;;;15.80;88.10;;;15.15;100.00;100800.66;5031879;28;20971;-64
2021/10/09 03:32:38;;;;;;;443.98;401.38;;;15.80;88.20;;;15.19;100.00;100796.19;5032885;28;20437;-63
2021/10/09 03:35:09;;;;;;;427.52;385.10;;;15.90;88.10;;;15.19;100.00;100795.38;5032894;28;20415;-64
2021/10/09 03:37:38;;;;;;;440.73;398.15;;;15.90;87.60;;;15.17;100.00;100787.50;5032521;28;20774;-63
2021/10/09 03:40:10;;;;;;;438.55;395.42;;;15.80;87.70;;;15.17;100.00;100792.97;5031993;28;20410;-64
2021/10/09 03:42:42;;;;;;;495.90;450.90;;;15.90;88.30;;;15.19;100.00;100790.75;5032459;28;20407;-62
2021/10/09 03:45:14;;;;;;;485.87;441.20;;;15.90;88.50;;;15.23;100.00;100796.31;5032616;28;20415;-64
2021/10/09 03:47:57;;;;;;;494.30;449.80;;;15.90;88.40;;;15.26;100.00;100806.56;5032528;28;20415;-63
2021/10/09 03:52:23;;;;;;;523.08;477.88;;;16.00;89.30;;;15.26;100.00;100796.47;5032232;28;20426;-65
2021/10/09 03:53:22;;;;;;;524.83;479.45;;;16.00;88.20;;;15.31;100.00;100795.53;5032312;28;20769;-64
2021/10/09 03:55:51;;;;;;;560.83;515.50;;;16.00;88.50;;;15.28;100.00;100788.81;5032349;28;20426;-63
2021/10/09 03:58:19;;;;;;;572.88;526.72;;;16.00;88.20;;;15.21;100.00;100785.75;5031783;28;20401;-62
2021/10/09 04:00:47;;;;;;;552.70;507.15;;;15.90;87.70;;;15.14;100.00;100788.16;5032065;28;20900;-61
2021/10/09 04:03:15;;;;;;;538.60;493.35;;;15.90;87.70;;;15.10;100.00;100787.22;5032310;28;20414;-65
2021/10/09 04:05:45;;;;;;;571.53;525.30;;;15.80;88.10;;;15.07;100.00;100793.31;5032058;28;20545;-64
2021/10/09 04:08:13;;;;;;;602.78;555.65;;;15.80;87.90;;;15.06;100.00;100796.31;5031602;28;20472;-63
2021/10/09 04:10:41;;;;;;;601.83;554.90;;;15.80;88.20;;;15.09;100.00;100785.59;5031915;28;20759;-62
2021/10/09 04:13:09;;;;;;;580.17;533.78;;;15.80;88.40;;;15.12;100.00;100793.13;5032063;28;20419;-64
2021/10/09 04:15:38;;;;;;;580.88;534.45;;;15.80;88.40;;;15.12;100.00;100787.69;5031985;28;20881;-64
2021/10/09 04:18:06;;;;;;;604.80;557.72;;;15.80;88.60;;;15.18;100.00;100793.75;5031518;28;20419;-64
2021/10/09 04:20:36;;;;;;;604.95;557.75;;;15.90;89.30;;;15.28;100.00;100794.25;5031501;28;20469;-64
2021/10/09 04:23:05;;;;;;;620.88;573.97;;;16.00;89.70;;;15.38;100.00;100787.66;5031969;28;20513;-65
2021/10/09 04:25:34;;;;;;;620.58;573.20;;;16.10;89.50;;;15.45;100.00;100785.25;5031648;28;20426;-65
2021/10/09 04:28:02;;;;;;;618.75;572.00;;;16.20;89.60;;;15.54;100.00;100785.25;5031261;28;20418;-63
2021/10/09 04:30:30;;;;;;;623.10;576.38;;;16.20;89.20;;;15.58;100.00;100783.50;5031667;28;20430;-66
2021/10/09 04:32:59;;;;;;;673.38;625.70;;;16.30;89.10;;;15.61;100.00;100786.38;5030770;28;20422;-62
2021/10/09 04:35:27;;;;;;;696.40;648.13;;;16.30;88.80;;;15.63;100.00;100788.78;5031737;28;20424;-66
2021/10/09 04:37:56;;;;;;;687.80;639.78;;;16.40;88.60;;;15.62;100.00;100787.19;5030997;28;20943;-64
2021/10/09 04:40:25;;;;;;;675.13;627.05;;;16.40;88.50;;;15.62;100.00;100790.72;5031278;28;20411;-64
2021/10/09 04:42:54;;;;;;;691.28;642.78;;;16.40;88.40;;;15.63;100.00;100786.84;5031574;28;20904;-66
2021/10/09 04:45:22;;;;;;;664.67;616.80;;;16.40;88.30;;;15.65;100.00;100790.06;5031325;28;20418;-64
2021/10/09 04:47:50;;;;;;;675.67;628.03;;;16.40;88.10;;;15.65;100.00;100794.72;5030875;28;20883;-64
2021/10/09 04:50:18;;;;;;;658.72;610.83;;;16.40;88.10;;;15.65;100.00;100800.97;5030931;28;20482;-63
2021/10/09 04:52:46;;;;;;;662.72;614.65;;;16.40;87.90;;;15.72;100.00;100803.19;5031512;28;20829;-62
2021/10/09 04:55:15;;;;;;;660.80;613.25;;;16.40;88.00;;;15.78;100.00;100804.63;5031276;28;21504;-64
2021/10/09 04:57:44;;;;;;;668.83;621.13;;;16.50;87.50;;;15.76;100.00;100815.84;5031117;28;20418;-66
2021/10/09 05:00:14;;;;;;;628.67;581.97;;;16.50;87.00;;;15.72;100.00;100805.91;5029722;28;20512;-64
2021/10/09 05:02:42;;;;;;;688.13;639.95;;;16.40;86.70;;;15.57;100.00;100814.59;5031298;28;20410;-63
2021/10/09 05:05:10;;;;;;;707.75;659.33;;;16.30;86.40;;;15.40;100.00;100807.22;5030916;28;20423;-65
2021/10/09 05:07:38;;;;;;;693.75;645.40;;;16.10;86.50;;;15.26;100.00;100812.81;5031244;28;20422;-64
2021/10/09 05:10:09;;;;;;;686.50;638.25;;;16.00;86.80;;;15.19;100.00;100812.53;5030151;28;20766;-62
2021/10/09 05:12:37;;;;;;;686.20;637.65;;;15.90;87.20;;;15.12;100.00;100816.84;5030846;28;20426;-65
2021/10/09 05:15:08;;;;;;;683.50;635.55;;;15.90;87.00;;;15.02;100.00;100812.50;5030952;28;20833;-64
2021/10/09 05:17:38;;;;;;;675.60;627.53;;;15.70;86.70;;;14.91;100.00;100807.69;5031006;28;20468;-63
2021/10/09 05:20:08;;;;;;;658.25;610.45;;;15.60;86.50;;;14.85;100.00;100812.50;5030261;28;20419;-62
2021/10/09 05:22:37;;;;;;;653.30;605.50;;;15.60;87.10;;;14.83;100.00;100813.94;5030630;28;20430;-64
2021/10/09 05:25:06;;;;;;;649.83;602.42;;;15.50;87.40;;;14.82;100.00;100821.28;5030693;28;20414;-64
2021/10/09 05:27:36;;;;;;;651.00;603.53;;;15.50;87.30;;;14.77;100.00;100821.47;5030648;28;20781;-62
2021/10/09 05:30:08;;;;;;;643.92;596.80;;;15.50;87.00;;;14.72;100.00;100824.31;5029931;28;20877;-64
2021/10/09 05:32:46;;;;;;;642.60;595.45;;;15.40;86.90;;;14.71;100.00;100825.44;5030860;28;20403;-64
2021/10/09 05:35:14;;;;;;;625.42;578.75;;;15.40;86.90;;;14.71;100.00;100820.00;5030698;28;20960;-64
2021/10/09 05:37:43;;;;;;;619.15;572.65;;;15.40;87.10;;;14.66;100.00;100833.75;5030546;28;20470;-65
2021/10/09 05:40:12;;;;;;;636.03;589.03;;;15.40;86.90;;;14.60;100.00;100824.94;5029925;28;20418;-64
2021/10/09 05:42:40;;;;;;;632.83;586.00;;;15.30;87.00;;;14.65;100.00;100832.16;5030317;28;20410;-60
2021/10/09 05:45:11;;;;;;;648.00;600.67;;;15.40;88.30;;;14.69;100.00;100828.47;5030611;28;20905;-60
2021/10/09 05:47:39;;;;;;;677.55;629.65;;;15.40;88.30;;;14.77;100.00;100824.94;5030433;28;20419;-63
2021/10/09 05:50:09;;;;;;;687.28;639.17;;;15.50;88.40;;;14.88;100.00;100828.19;5029756;28;20774;-61
2021/10/09 05:52:43;;;;;;;691.28;643.15;;;15.60;88.50;;;14.88;100.00;100828.19;5030459;28;20438;-63
2021/10/09 05:55:16;;;;;;;679.85;631.90;;;15.60;88.40;;;14.91;100.00;100833.00;5030476;28;20797;-65
2021/10/09 05:57:54;;;;;;;683.42;635.42;;;15.70;88.10;;;14.95;100.00;100825.00;5030621;28;20414;-62
2021/10/09 06:42:23;;;;;;;710.30;661.58;;;15.30;84.90;;;14.52;100.00;100833.06;4991634;28;20829;-64
2021/10/09 06:45:06;;;;;;;691.50;643.40;;;15.30;85.50;;;14.51;100.00;100839.63;5029980;28;20767;-63
2021/10/09 06:47:36;;;;;;;683.15;635.30;;;15.20;86.20;;;14.61;100.00;100844.78;5029640;28;20769;-64
2021/10/09 06:50:34;;;;;;;682.17;634.38;;;15.30;86.50;;;14.74;100.00;100838.41;5029378;28;20429;-64
2021/10/09 07:01:18;;;;;;;742.13;693.10;;;16.30;85.40;;;15.79;100.00;100838.94;5033284;28;20445;-65
2021/10/09 07:03:46;;;;;;;737.97;689.05;;;16.50;83.70;;;15.94;100.00;100838.44;5033394;28;20418;-67
2021/10/09 07:06:18;;;;;;;757.20;707.90;;;16.60;84.30;;;16.35;100.00;100844.06;5029053;28;60537;-66
2021/10/09 07:08:46;;;;;;;776.75;726.85;;;17.10;83.20;;;17.09;100.00;100845.44;5029145;28;59604;-63
2021/10/09 07:12:42;;;;;;;827.75;776.75;;;17.90;80.50;;;18.30;100.00;100835.75;5092882;27;20383;-64
2021/10/09 07:15:15;;;;;;;848.78;797.38;;;19.50;76.30;;;18.88;100.00;100841.94;5067768;28;20416;-62
2021/10/09 07:17:45;;;;;;;876.00;824.00;;;20.10;73.30;;;19.41;100.00;100832.59;5067715;28;20459;-67
2021/10/09 07:20:14;;;;;;;909.57;856.37;;;20.70;71.90;;;19.62;100.00;100842.22;5063923;28;20421;-63
2021/10/09 07:22:42;;;;;;;896.42;843.90;;;20.90;70.30;;;19.77;100.00;100850.84;5067490;28;20416;-64
2021/10/09 07:25:10;;;;;;;909.05;855.97;;;20.80;70.30;;;19.75;100.00;100850.41;5067598;28;20408;-62
2021/10/09 07:27:40;;;;;;;905.80;852.97;;;20.50;71.30;;;19.66;100.00;100852.50;5067427;28;20424;-65
2021/10/09 07:30:09;;;;;;;902.38;849.67;;;20.30;72.00;;;19.56;100.00;100851.84;5066805;28;20565;-66
2021/10/09 07:32:38;;;;;;;905.08;852.13;;;20.20;73.30;;;19.52;100.00;100853.69;5067337;28;20421;-65
2021/10/09 07:35:07;;;;;;;909.42;856.15;;;20.10;74.20;;;19.57;100.00;100860.88;5067503;28;20423;-62
2021/10/09 07:37:35;;;;;;;904.17;851.38;;;20.10;74.80;;;19.55;100.00;100854.91;5067433;28;20490;-63
2021/10/09 07:40:05;;;;;;;898.00;845.30;;;20.10;74.70;;;19.61;100.00;100861.75;5066618;28;20409;-65
2021/10/09 07:42:33;;;;;;;897.67;845.07;;;20.10;74.90;;;19.60;100.00;100860.97;5067096;28;20408;-67
2021/10/09 07:45:03;;;;;;;899.03;846.28;;;20.10;75.50;;;19.66;100.00;100861.53;5067039;28;20420;-63
2021/10/09 07:47:31;;;;;;;893.15;840.85;;;20.20;72.80;;;19.80;100.00;100861.09;5065663;28;20447;-61
2021/10/09 07:49:59;;;;;;;901.60;848.83;;;20.30;71.60;;;20.03;100.00;100862.91;5064838;28;20408;-63
2021/10/09 07:52:27;;;;;;;910.65;857.65;;;20.70;71.60;;;20.30;100.00;100868.75;5065310;28;20432;-64
2021/10/09 07:54:55;;;;;;;919.67;866.60;;;21.00;69.70;;;20.41;100.00;100865.13;5065816;28;20411;-63
2021/10/09 07:57:24;;;;;;;920.58;867.50;;;21.00;69.20;;;20.49;100.00;100868.81;5066809;28;20415;-64
2021/10/09 07:59:52;;;;;;;920.38;867.13;;;21.10;69.50;;;20.54;100.00;100880.38;5065659;28;20412;-64
2021/10/09 08:02:21;;;;;;;930.60;877.20;;;21.20;68.60;;;20.57;100.00;100876.91;5066790;28;20409;-63
2021/10/09 08:04:51;;;;;;;921.13;868.03;;;21.30;68.70;;;20.61;100.00;100877.78;5066694;28;20439;-65
2021/10/09 08:07:21;;;;;;;931.45;878.03;;;21.40;68.70;;;20.65;100.00;100875.91;5066508;28;20440;-63
2021/10/09 08:09:49;;;;;;;935.75;882.25;;;21.40;68.50;;;20.70;100.00;100886.63;5065733;28;20423;-63
2021/10/09 08:12:17;;;;;;;942.03;888.30;;;21.50;69.20;;;20.75;100.00;100880.06;5084169;28;20476;-63
2021/10/09 08:14:45;;;;;;;948.58;894.47;;;21.50;69.40;;;20.81;100.00;100897.09;5086799;28;20403;-63
2021/10/09 08:17:13;;;;;;;949.85;895.88;;;21.60;69.50;;;20.90;100.00;100894.94;5086672;28;20520;-64
2021/10/09 08:19:43;;;;;;;956.47;902.17;;;21.70;70.30;;;21.04;100.00;100898.81;5086005;28;20410;-67
2021/10/09 08:22:11;;;;;;;978.47;923.50;;;21.90;70.80;;;21.24;100.00;100896.94;5083050;28;20881;-64
2021/10/09 08:24:43;;;;;;;994.00;937.97;;;22.00;70.70;;;21.50;100.00;100893.56;5073334;28;20426;-64
2021/10/09 08:35:34;;;;;;;1012.22;955.83;;;22.60;69.80;;;21.72;100.00;100910.16;5072866;28;20434;-62
2021/10/09 08:40:53;;;;;;;1005.60;949.40;;;22.40;67.30;;;21.71;100.00;100911.31;5065466;28;20404;-68
2021/10/09 08:43:22;;;;;;;999.25;943.45;;;22.50;67.10;;;21.70;100.00;100908.94;5071950;28;20465;-65
2021/10/09 08:45:50;;;;;;;1001.85;945.85;;;22.50;66.90;;;21.72;100.00;100912.91;5072016;28;20526;-66
2021/10/09 08:48:18;;;;;;;998.33;942.42;;;22.50;67.80;;;21.90;100.00;100909.75;5071543;28;20778;-62
2021/10/09 08:50:48;;;;;;;1006.35;950.03;;;22.70;67.10;;;22.04;100.00;100915.53;5071520;28;20412;-63
2021/10/09 08:53:16;;;;;;;1004.97;948.88;;;22.80;67.50;;;22.04;100.00;100912.78;5071755;28;20419;-64
2021/10/09 08:55:48;;;;;;;1008.10;951.85;;;22.80;67.00;;;21.98;100.00;100906.75;5071791;28;20416;-62
2021/10/09 08:58:34;;;;;;;1021.55;964.85;;;22.80;66.20;;;22.04;100.00;100913.56;5071712;28;20522;-64
2021/10/09 09:01:10;;;;;;;1019.78;963.08;;;22.90;67.00;;;22.12;100.00;100909.00;5071775;28;20412;-63
2021/10/09 09:04:11;;;;;;;1027.63;970.33;;;22.90;66.40;;;22.22;100.00;100911.16;5071837;28;20515;-61
2021/10/09 09:26:47;;;;;;;1032.85;976.10;;;23.90;63.50;;;23.18;100.00;100911.56;5071648;28;20457;-61
2021/10/09 09:32:16;;;;;;;1037.32;980.42;;;23.90;58.30;;;23.44;98.48;100910.00;5070361;28;20431;-62
2021/10/09 09:35:02;;;;;;;1037.82;980.58;;;24.00;57.90;;;23.56;95.08;100921.56;5070069;28;20529;-65
2021/10/09 09:38:53;;;;;;;1047.72;990.25;;;24.10;57.40;;;23.74;98.83;100916.28;5071353;28;20526;-63
2021/10/09 09:40:45;;;;;;;1058.57;999.90;;;24.20;58.10;;;23.92;100.00;100920.81;5070557;28;20446;-65
2021/10/09 09:43:14;;;;;;;1056.15;998.35;;;24.50;58.90;;;24.06;98.46;100908.34;5070924;28;20515;-65
2021/10/09 09:45:42;;;;;;;1063.95;999.90;;;24.60;58.20;;;24.12;96.18;100907.66;5071016;28;20419;-65
2021/10/09 09:48:10;;;;;;;1064.97;999.90;;;24.80;57.80;;;24.16;90.35;100913.25;5070211;28;20419;-64
2021/10/09 09:50:40;;;;;;;1063.65;999.90;;;24.90;56.60;;;24.29;88.50;100917.28;5070512;28;20415;-65
2021/10/09 09:53:09;;;;;;;1061.77;999.73;;;24.90;56.10;;;24.41;100.00;100917.81;5070788;28;20428;-65
2021/10/09 09:55:37;;;;;;;1063.40;999.90;;;25.20;60.90;;;24.25;100.00;100913.72;5071191;28;20415;-64
2021/10/09 09:58:09;;;;;;;1057.45;997.10;;;25.10;62.40;;;24.15;100.00;100919.94;5069838;28;20584;-62
2021/10/09 10:00:37;;;;;;;1057.05;996.83;;;24.90;62.90;;;23.98;100.00;100913.03;5067697;28;20435;-63
2021/10/09 10:03:07;;;;;;;1052.27;992.23;;;24.80;63.20;;;23.83;100.00;100917.56;5070164;28;20423;-64
2021/10/09 10:05:35;;;;;;;1056.97;996.85;;;24.70;62.90;;;23.74;100.00;100917.06;5067247;28;20913;-63
2021/10/09 10:08:04;;;;;;;1050.97;990.78;;;24.60;63.00;;;23.89;100.00;100910.53;5067428;28;20415;-66
2021/10/09 10:10:33;;;;;;;1049.93;989.65;;;24.70;63.10;;;24.02;100.00;100918.56;5069343;28;20423;-62
2021/10/09 10:13:01;;;;;;;1049.90;989.90;;;24.70;63.60;;;24.09;100.00;100918.66;5068123;28;20489;-65
2021/10/09 10:15:33;;;;;;;1046.20;987.33;;;24.90;63.70;;;24.19;100.00;100913.28;5062312;28;20882;-64
2021/10/09 10:18:01;;;;;;;1050.72;991.22;;;24.90;63.00;;;24.37;100.00;100913.44;5068522;28;20415;-62
2021/10/09 10:20:48;;;;;;;1057.15;998.03;;;25.10;62.70;;;24.48;100.00;100917.09;5068825;28;20427;-64
2021/10/09 10:23:36;;;;;;;1054.73;995.53;;;25.20;63.20;;;24.44;100.00;100908.75;5048801;28;20445;-64
2021/10/09 10:26:31;;;;;;;1058.53;999.13;;;25.20;62.40;;;24.17;100.00;100912.84;5062727;28;20477;-63
2021/10/09 10:29:24;;;;;;;1066.15;999.90;;;25.00;62.50;;;24.15;100.00;100919.94;5065843;28;20491;-64
2021/10/09 10:32:18;;;;;;;1059.03;999.90;;;24.90;64.10;;;24.09;100.00;100911.16;5068038;28;20897;-64
2021/10/09 10:34:49;;;;;;;1059.13;999.60;;;24.90;63.30;;;24.03;100.00;100917.41;5068873;28;20477;-64
2021/10/09 10:37:38;;;;;;;1077.80;999.90;;;24.80;63.30;;;24.04;100.00;100910.72;5068698;28;20782;-65
2021/10/09 10:40:08;;;;;;;1070.68;999.90;;;24.80;64.40;;;23.89;100.00;100918.06;5067725;28;20419;-65
2021/10/09 10:42:36;;;;;;;1066.13;999.90;;;24.70;64.40;;;23.72;100.00;100905.59;5068361;28;20889;-66
2021/10/09 10:45:09;;;;;;;1060.00;999.90;;;24.60;65.00;;;23.83;100.00;100911.28;5068534;28;20419;-64
2021/10/09 10:48:05;;;;;;;1060.85;999.90;;;24.60;64.90;;;23.73;100.00;100900.88;5068626;28;20447;-63
2021/10/09 10:51:14;;;;;;;1068.35;999.90;;;24.60;64.90;;;23.73;100.00;100909.16;5068143;28;20919;-64
2021/10/09 10:54:21;;;;;;;1061.40;999.90;;;24.50;65.50;;;23.82;100.00;100904.94;5068435;28;20408;-62
2021/10/09 10:57:23;;;;;;;1066.73;999.90;;;24.60;65.50;;;23.78;100.00;100897.78;5068458;28;20789;-66
2021/10/09 11:00:13;;;;;;;1067.47;999.90;;;24.60;64.30;;;23.56;100.00;100896.72;5066473;28;20415;-65
2021/10/09 11:02:50;;;;;;;1066.93;999.90;;;24.40;64.50;;;23.47;100.00;100898.97;5067886;28;20454;-63
2021/10/09 11:05:18;;;;;;;1064.38;999.90;;;24.30;64.70;;;23.49;100.00;100888.38;5068586;28;20435;-64
2021/10/09 11:07:48;;;;;;;1063.07;999.90;;;24.30;65.40;;;23.67;100.00;100891.34;5070292;28;20422;-61
2021/10/09 11:10:17;;;;;;;1069.95;999.90;;;24.40;65.30;;;23.88;100.00;100886.06;5069639;28;20473;-65
2021/10/09 11:12:48;;;;;;;1063.53;999.90;;;24.70;64.30;;;23.95;100.00;100886.94;5069892;28;20431;-64
2021/10/09 11:15:19;;;;;;;1073.00;999.90;;;24.70;64.80;;;24.16;100.00;100891.13;5069927;28;20858;-62
2021/10/09 11:17:59;;;;;;;1084.53;999.90;;;24.90;64.20;;;24.24;100.00;100884.50;5070187;28;20411;-62
2021/10/09 11:20:29;;;;;;;1091.63;999.90;;;25.00;63.10;;;24.33;100.00;100884.97;5069781;28;20422;-65
2021/10/09 11:22:59;;;;;;;788.95;739.13;;;25.00;63.30;;;24.34;100.00;100881.84;5071252;28;20205;-63
2021/10/09 11:25:31;;;;;;;1056.45;997.42;;;25.00;63.40;;;23.97;100.00;100885.75;5070154;28;20473;-64
2021/10/09 11:28:02;;;;;;;1062.10;999.90;;;24.80;63.40;;;23.92;100.00;100881.38;5069397;28;20430;-64